Time;durP1;ratioP1;P1;durP2;ratioP2;P2;SDS_P1;SDS_P2;PMS_P1;PMS_P2;Temp;Humidity;BMP_temperature;BMP_pressure;BME280_temperature;BME280_humidity;BME280_pressure;Samples;Min_cycle;Max_cycle;Signal;HPM_P1;HPM_P2
2021/10/12 00:00:51;;;;;;;8.57;3.25;;;;;;;;;;5032473;28;20023;-90
2021/10/12 00:03:16;;;;;;;13.20;3.72;;;;;;;;;;5056223;28;20018;-90
2021/10/12 00:05:42;;;;;;;13.55;4.10;;;;;;;;;;5053490;28;20064;-90
2021/10/12 00:08:07;;;;;;;13.13;3.60;;;;;;;;;;5032316;28;20032;-90
2021/10/12 00:10:33;;;;;;;10.23;3.08;;;;;;;;;;5032504;28;20052;-90
2021/10/12 00:12:58;;;;;;;11.82;3.42;;;;;;;;;;5032319;28;20032;-90
2021/10/12 00:15:23;;;;;;;11.77;3.53;;;;;;;;;;5032277;28;20124;-90
2021/10/12 00:17:48;;;;;;;8.05;3.42;;;;;;;;;;5064025;28;20034;-90
2021/10/12 00:20:14;;;;;;;11.05;4.03;;;;;;;;;;5032580;28;20056;-90
2021/10/12 00:22:39;;;;;;;12.02;3.25;;;;;;;;;;5032033;28;20029;-90
2021/10/12 00:25:05;;;;;;;8.30;3.42;;;;;;;;;;5033447;28;20057;-90
2021/10/12 00:27:30;;;;;;;9.90;3.50;;;;;;;;;;5032145;28;20112;-90
2021/10/12 00:29:55;;;;;;;15.55;3.58;;;;;;;;;;5033422;28;20029;-91
2021/10/12 00:32:21;;;;;;;14.38;3.42;;;;;;;;;;5032267;28;20029;-90
2021/10/12 00:34:46;;;;;;;15.05;4.05;;;;;;;;;;5032090;28;20040;-90
2021/10/12 00:37:15;;;;;;;11.68;3.70;;;;;;;;;;5032519;28;20048;-90
2021/10/12 00:39:40;;;;;;;13.75;3.50;;;;;;;;;;5033265;28;20025;-90
2021/10/12 00:42:06;;;;;;;11.15;3.38;;;;;;;;;;5032728;28;20029;-90
2021/10/12 00:44:32;;;;;;;8.93;3.38;;;;;;;;;;5036422;28;20029;-90
2021/10/12 00:46:57;;;;;;;13.98;3.60;;;;;;;;;;5036052;28;20436;-90
2021/10/12 00:49:23;;;;;;;15.95;3.85;;;;;;;;;;5036013;28;20543;-90
2021/10/12 00:51:48;;;;;;;15.80;5.25;;;;;;;;;;5036426;28;20036;-90
2021/10/12 00:54:13;;;;;;;12.50;3.70;;;;;;;;;;5062653;28;20033;-90
2021/10/12 00:56:39;;;;;;;17.70;3.95;;;;;;;;;;5062625;28;20088;-90
2021/10/12 00:59:05;;;;;;;18.65;3.75;;;;;;;;;;5066164;28;20730;-90
2021/10/12 01:01:30;;;;;;;15.45;3.53;;;;;;;;;;5036021;28;20044;-90
2021/10/12 01:03:56;;;;;;;7.38;2.78;;;;;;;;;;5067996;28;20556;-90
2021/10/12 01:06:21;;;;;;;12.73;3.42;;;;;;;;;;5065015;28;20112;-90
2021/10/12 01:08:46;;;;;;;19.70;4.35;;;;;;;;;;5035939;28;20496;-90
2021/10/12 01:11:12;;;;;;;13.15;3.47;;;;;;;;;;5035419;28;20162;-90
2021/10/12 01:13:37;;;;;;;14.52;3.85;;;;;;;;;;5069108;28;20025;-90
2021/10/12 01:16:03;;;;;;;12.18;4.13;;;;;;;;;;5035520;28;20029;-90
2021/10/12 01:18:28;;;;;;;9.60;3.40;;;;;;;;;;5060231;28;20025;-90
2021/10/12 01:20:53;;;;;;;14.63;3.50;;;;;;;;;;5035616;28;20033;-90
2021/10/12 01:23:19;;;;;;;10.00;3.22;;;;;;;;;;5058955;28;20026;-89
2021/10/12 01:25:44;;;;;;;9.43;3.15;;;;;;;;;;5032610;28;20384;-90
2021/10/12 01:28:10;;;;;;;9.77;2.92;;;;;;;;;;5036621;28;20030;-90
2021/10/12 01:30:36;;;;;;;16.52;3.95;;;;;;;;;;5035374;28;20065;-91
2021/10/12 01:33:02;;;;;;;10.68;3.88;;;;;;;;;;5032439;28;20025;-90
2021/10/12 01:35:27;;;;;;;15.52;3.72;;;;;;;;;;5049223;28;20022;-90
2021/10/12 01:37:52;;;;;;;11.15;3.63;;;;;;;;;;5034632;28;20037;-90
2021/10/12 01:40:18;;;;;;;17.25;3.75;;;;;;;;;;5058378;28;20535;-90
2021/10/12 01:42:43;;;;;;;13.70;3.78;;;;;;;;;;5035318;28;20029;-90
2021/10/12 01:45:09;;;;;;;16.05;4.00;;;;;;;;;;5036140;28;20116;-91
2021/10/12 01:47:34;;;;;;;15.48;3.70;;;;;;;;;;5054286;28;20461;-90
2021/10/12 01:49:59;;;;;;;15.23;3.72;;;;;;;;;;5035070;28;20037;-90
2021/10/12 01:52:25;;;;;;;11.48;4.30;;;;;;;;;;5034898;28;20032;-90
2021/10/12 01:54:50;;;;;;;14.38;4.30;;;;;;;;;;5033779;28;20022;-90
2021/10/12 01:57:17;;;;;;;11.20;3.97;;;;;;;;;;5025087;28;20032;-91
2021/10/12 01:59:42;;;;;;;18.95;4.03;;;;;;;;;;5033700;28;20057;-90
2021/10/12 02:02:08;;;;;;;10.65;3.25;;;;;;;;;;5025710;28;20441;-90
2021/10/12 02:04:33;;;;;;;15.40;3.75;;;;;;;;;;5035458;28;20033;-90
2021/10/12 02:06:58;;;;;;;10.70;3.75;;;;;;;;;;5075908;28;20033;-90
2021/10/12 02:09:24;;;;;;;16.90;3.88;;;;;;;;;;5034602;28;20033;-90
2021/10/12 02:11:49;;;;;;;14.20;3.22;;;;;;;;;;5035690;28;20473;-90
2021/10/12 02:14:14;;;;;;;15.80;4.65;;;;;;;;;;5034411;28;20167;-90
2021/10/12 02:16:40;;;;;;;12.93;4.25;;;;;;;;;;5034242;28;20393;-90
2021/10/12 02:19:05;;;;;;;10.32;3.55;;;;;;;;;;5034463;28;20026;-90
2021/10/12 02:21:30;;;;;;;7.10;3.30;;;;;;;;;;5034499;28;20025;-90
2021/10/12 02:23:56;;;;;;;9.85;3.70;;;;;;;;;;5062658;28;20026;-90
2021/10/12 02:26:21;;;;;;;12.63;3.53;;;;;;;;;;5031504;28;20025;-90
2021/10/12 02:28:46;;;;;;;13.57;3.85;;;;;;;;;;5034404;28;20031;-90
2021/10/12 02:31:11;;;;;;;14.70;3.75;;;;;;;;;;5034524;28;20033;-90
2021/10/12 02:33:37;;;;;;;15.93;3.83;;;;;;;;;;5033984;28;20029;-90
2021/10/12 02:36:02;;;;;;;11.95;3.80;;;;;;;;;;5062730;28;20028;-90
2021/10/12 02:38:27;;;;;;;14.27;3.45;;;;;;;;;;5056161;28;20474;-90
2021/10/12 02:40:52;;;;;;;15.50;4.32;;;;;;;;;;5034507;28;20068;-90
2021/10/12 02:43:18;;;;;;;12.48;3.90;;;;;;;;;;5034559;28;20029;-90
2021/10/12 02:45:44;;;;;;;10.23;3.42;;;;;;;;;;5035056;28;20090;-90
2021/10/12 02:48:09;;;;;;;10.10;4.43;;;;;;;;;;5034078;28;20026;-90
2021/10/12 02:50:34;;;;;;;10.73;3.47;;;;;;;;;;5034179;28;20164;-91
2021/10/12 02:52:59;;;;;;;11.40;3.33;;;;;;;;;;5033730;28;20167;-90
2021/10/12 02:55:24;;;;;;;11.38;3.50;;;;;;;;;;5033642;28;20022;-90
2021/10/12 02:57:50;;;;;;;10.18;4.05;;;;;;;;;;5034154;28;20476;-90
2021/10/12 03:00:15;;;;;;;13.10;4.35;;;;;;;;;;5033761;28;20100;-90
2021/10/12 03:02:40;;;;;;;16.40;3.80;;;;;;;;;;5033682;28;20029;-90
2021/10/12 03:05:05;;;;;;;12.80;3.63;;;;;;;;;;5058006;28;20030;-90
2021/10/12 03:07:31;;;;;;;12.70;3.42;;;;;;;;;;5033759;28;20079;-90
2021/10/12 03:09:56;;;;;;;10.32;3.17;;;;;;;;;;5058031;28;20017;-90
2021/10/12 03:12:21;;;;;;;12.23;3.22;;;;;;;;;;5060599;28;20124;-90
2021/10/12 03:14:46;;;;;;;9.02;3.17;;;;;;;;;;5033593;28;20400;-90
2021/10/12 03:17:12;;;;;;;11.48;3.13;;;;;;;;;;5033584;28;20469;-90
2021/10/12 03:19:37;;;;;;;15.57;3.45;;;;;;;;;;5033219;28;20411;-90
2021/10/12 03:22:11;;;;;;;15.13;3.72;;;;;;;;;;5053924;28;20445;-90
2021/10/12 03:24:37;;;;;;;9.00;2.95;;;;;;;;;;5031238;28;20030;-90
2021/10/12 03:27:02;;;;;;;20.92;4.25;;;;;;;;;;5028045;28;20029;-90
2021/10/12 03:29:27;;;;;;;17.52;4.18;;;;;;;;;;5033029;28;20087;-90
2021/10/12 03:31:53;;;;;;;11.10;3.38;;;;;;;;;;5034131;28;20022;-90
2021/10/12 03:34:18;;;;;;;18.40;4.03;;;;;;;;;;5033192;28;20028;-90
2021/10/12 03:36:43;;;;;;;9.40;3.83;;;;;;;;;;5032850;28;20051;-90
2021/10/12 03:39:08;;;;;;;10.65;3.58;;;;;;;;;;5034423;28;20366;-90
2021/10/12 03:41:34;;;;;;;6.20;3.28;;;;;;;;;;5032787;28;20372;-90
2021/10/12 03:43:59;;;;;;;12.15;3.40;;;;;;;;;;5033185;28;20507;-90
2021/10/12 03:46:24;;;;;;;19.70;3.30;;;;;;;;;;5032922;28;20022;-90
2021/10/12 03:48:50;;;;;;;11.38;3.10;;;;;;;;;;5032812;28;20385;-90
2021/10/12 03:51:15;;;;;;;12.70;3.35;;;;;;;;;;5033224;28;20025;-90
2021/10/12 03:53:40;;;;;;;9.88;3.10;;;;;;;;;;5032735;28;20036;-90
2021/10/12 03:56:05;;;;;;;10.15;3.38;;;;;;;;;;5033889;28;20477;-90
2021/10/12 03:58:31;;;;;;;11.88;4.03;;;;;;;;;;5032854;28;20039;-90
2021/10/12 04:00:56;;;;;;;15.57;3.22;;;;;;;;;;5055448;28;20108;-90
2021/10/12 04:03:21;;;;;;;13.27;3.78;;;;;;;;;;5032831;28;20037;-91
2021/10/12 04:05:47;;;;;;;10.45;3.45;;;;;;;;;;5032729;28;20504;-90
2021/10/12 04:08:12;;;;;;;13.63;3.13;;;;;;;;;;5031187;28;20041;-90
2021/10/12 04:10:37;;;;;;;14.85;3.67;;;;;;;;;;5032688;28;20033;-90
2021/10/12 04:13:04;;;;;;;14.98;3.17;;;;;;;;;;5032516;28;20124;-90
2021/10/12 04:15:30;;;;;;;7.90;2.95;;;;;;;;;;5032448;28;20027;-91
2021/10/12 04:17:55;;;;;;;9.20;3.35;;;;;;;;;;5031885;28;20022;-90
2021/10/12 04:20:24;;;;;;;12.73;3.33;;;;;;;;;;5065346;28;20021;-90
2021/10/12 04:22:49;;;;;;;10.80;2.85;;;;;;;;;;5032374;28;20028;-89
2021/10/12 04:25:15;;;;;;;12.18;3.33;;;;;;;;;;5065844;28;20025;-90
2021/10/12 04:27:40;;;;;;;13.65;2.97;;;;;;;;;;5032333;28;20027;-91
2021/10/12 04:30:05;;;;;;;12.43;3.25;;;;;;;;;;5033461;28;20029;-90
2021/10/12 04:32:31;;;;;;;10.18;3.28;;;;;;;;;;5032305;28;20033;-90
2021/10/12 04:34:56;;;;;;;13.00;3.35;;;;;;;;;;5032352;28;20036;-90
2021/10/12 04:37:57;;;;;;;6.68;2.78;;;;;;;;;;5032268;28;20045;-90
2021/10/12 04:40:23;;;;;;;10.73;3.50;;;;;;;;;;5045729;28;20018;-90
2021/10/12 04:42:48;;;;;;;13.48;2.83;;;;;;;;;;5031039;28;20362;-91
2021/10/12 04:45:14;;;;;;;10.55;3.05;;;;;;;;;;5032368;28;20036;-91
2021/10/12 04:47:39;;;;;;;11.55;3.05;;;;;;;;;;5032262;28;20071;-90
2021/10/12 04:50:05;;;;;;;5.70;2.50;;;;;;;;;;5052626;28;20033;-91
2021/10/12 04:52:30;;;;;;;11.30;2.97;;;;;;;;;;5031880;28;20025;-91
2021/10/12 04:54:55;;;;;;;9.48;3.03;;;;;;;;;;5033419;28;20029;-90
2021/10/12 04:57:20;;;;;;;13.65;3.05;;;;;;;;;;5031984;28;20424;-90
2021/10/12 04:59:46;;;;;;;10.35;2.50;;;;;;;;;;5033521;28;20493;-90
2021/10/12 05:02:11;;;;;;;12.20;2.63;;;;;;;;;;5031554;28;20078;-90
2021/10/12 05:04:36;;;;;;;17.83;3.05;;;;;;;;;;5031826;28;20025;-90
2021/10/12 05:07:01;;;;;;;11.93;3.17;;;;;;;;;;5032087;28;20026;-91
2021/10/12 05:09:27;;;;;;;9.02;3.10;;;;;;;;;;5032050;28;20026;-90
2021/10/12 05:11:52;;;;;;;10.93;3.30;;;;;;;;;;5032014;28;20029;-90
2021/10/12 05:14:18;;;;;;;11.60;2.90;;;;;;;;;;5031656;28;20025;-90
2021/10/12 05:16:44;;;;;;;11.27;2.63;;;;;;;;;;5031931;28;20155;-90
2021/10/12 05:19:09;;;;;;;11.80;2.58;;;;;;;;;;5033072;28;20457;-91
2021/10/12 05:21:34;;;;;;;11.75;3.00;;;;;;;;;;5031796;28;20104;-91
2021/10/12 05:24:00;;;;;;;7.47;2.75;;;;;;;;;;5031862;28;20032;-90
2021/10/12 05:26:25;;;;;;;7.90;2.65;;;;;;;;;;5056340;28;20080;-90
2021/10/12 05:28:51;;;;;;;11.57;3.13;;;;;;;;;;5033848;28;20029;-90
2021/10/12 05:31:17;;;;;;;14.73;3.33;;;;;;;;;;5035548;28;20033;-90
2021/10/12 05:33:44;;;;;;;12.80;3.13;;;;;;;;;;5035259;28;20059;-90
2021/10/12 05:36:09;;;;;;;12.73;3.00;;;;;;;;;;5035404;28;20022;-91
2021/10/12 05:38:35;;;;;;;11.10;2.58;;;;;;;;;;5036346;28;20018;-90
2021/10/12 05:41:00;;;;;;;7.45;2.47;;;;;;;;;;5035387;28;20064;-90
2021/10/12 05:43:25;;;;;;;7.75;2.38;;;;;;;;;;5035128;28;20030;-90
2021/10/12 05:45:50;;;;;;;8.45;2.97;;;;;;;;;;5058367;28;20033;-90
2021/10/12 05:48:16;;;;;;;18.35;2.80;;;;;;;;;;5035004;28;20021;-90
2021/10/12 05:50:43;;;;;;;9.70;2.53;;;;;;;;;;5059763;28;20400;-90
2021/10/12 05:53:25;;;;;;;11.93;3.10;;;;;;;;;;5036305;28;20034;-90
2021/10/12 05:56:11;;;;;;;10.70;3.13;;;;;;;;;;5032659;28;20025;-91
2021/10/12 05:58:51;;;;;;;15.15;3.33;;;;;;;;;;5051436;28;20121;-90
2021/10/12 06:01:18;;;;;;;12.45;3.30;;;;;;;;;;5035017;28;20479;-90
2021/10/12 06:03:43;;;;;;;9.73;2.65;;;;;;;;;;5034703;28;20389;-90
2021/10/12 06:06:08;;;;;;;9.95;2.35;;;;;;;;;;5033214;28;20045;-91
2021/10/12 06:08:34;;;;;;;13.60;2.75;;;;;;;;;;5035076;28;20030;-90
2021/10/12 06:10:59;;;;;;;8.80;2.97;;;;;;;;;;5035070;28;20030;-90
2021/10/12 06:13:25;;;;;;;10.43;3.50;;;;;;;;;;5055408;28;20033;-90
2021/10/12 06:15:51;;;;;;;10.82;2.70;;;;;;;;;;5034629;28;20028;-90
2021/10/12 06:18:16;;;;;;;10.40;3.08;;;;;;;;;;5033837;28;20033;-90
2021/10/12 06:20:41;;;;;;;10.75;3.25;;;;;;;;;;5051344;28;20040;-90
2021/10/12 06:23:08;;;;;;;12.30;3.38;;;;;;;;;;5038520;28;20017;-90
2021/10/12 06:25:33;;;;;;;9.75;3.53;;;;;;;;;;5043015;28;20480;-90
2021/10/12 06:27:59;;;;;;;9.18;2.78;;;;;;;;;;5042701;28;20092;-90
2021/10/12 06:30:24;;;;;;;8.65;3.05;;;;;;;;;;5033970;28;20068;-90
2021/10/12 06:32:49;;;;;;;17.85;3.08;;;;;;;;;;5034669;28;20029;-89
2021/10/12 06:35:14;;;;;;;7.70;2.95;;;;;;;;;;5036432;28;20021;-90
2021/10/12 06:37:39;;;;;;;11.05;2.67;;;;;;;;;;5075113;28;20024;-89
2021/10/12 06:40:05;;;;;;;11.73;2.90;;;;;;;;;;5033433;28;20480;-90
2021/10/12 06:42:30;;;;;;;9.27;3.40;;;;;;;;;;5034323;28;20059;-90
2021/10/12 06:44:55;;;;;;;29.05;4.13;;;;;;;;;;5034044;28;20465;-90
2021/10/12 06:47:21;;;;;;;10.82;2.95;;;;;;;;;;5042090;28;20025;-90
2021/10/12 06:49:46;;;;;;;10.65;3.90;;;;;;;;;;5033967;28;20021;-90
2021/10/12 06:52:11;;;;;;;11.07;3.30;;;;;;;;;;5035130;28;20041;-90
2021/10/12 06:54:36;;;;;;;9.73;2.65;;;;;;;;;;5035147;28;20022;-90
2021/10/12 06:57:02;;;;;;;11.45;2.92;;;;;;;;;;5033708;28;20026;-90
2021/10/12 06:59:28;;;;;;;9.80;3.42;;;;;;;;;;5033874;28;20040;-90
2021/10/12 07:01:53;;;;;;;16.25;3.45;;;;;;;;;;5046941;28;20273;-90
2021/10/12 07:04:19;;;;;;;11.75;3.15;;;;;;;;;;5034113;28;20016;-90
2021/10/12 07:06:44;;;;;;;13.50;3.78;;;;;;;;;;5033781;28;20024;-90
2021/10/12 07:09:11;;;;;;;10.27;3.30;;;;;;;;;;5039842;28;20025;-89
2021/10/12 07:11:36;;;;;;;10.23;3.55;;;;;;;;;;5063756;28;20023;-89
2021/10/12 07:14:04;;;;;;;9.60;3.60;;;;;;;;;;5033362;28;20029;-90
2021/10/12 07:16:29;;;;;;;13.73;3.53;;;;;;;;;;5033335;28;20022;-89
2021/10/12 07:18:54;;;;;;;11.68;3.58;;;;;;;;;;5037503;28;20381;-90
2021/10/12 07:21:20;;;;;;;15.15;3.78;;;;;;;;;;5033477;28;20021;-89
2021/10/12 07:23:45;;;;;;;10.60;3.90;;;;;;;;;;5038129;28;20021;-89
2021/10/12 07:26:10;;;;;;;11.25;3.55;;;;;;;;;;5038268;28;20109;-89
2021/10/12 07:28:35;;;;;;;13.70;3.47;;;;;;;;;;5028649;28;20025;-90
2021/10/12 07:31:03;;;;;;;9.70;3.75;;;;;;;;;;5030342;28;20120;-89
2021/10/12 07:33:29;;;;;;;11.63;3.75;;;;;;;;;;5032223;28;20071;-90
2021/10/12 07:35:57;;;;;;;16.05;4.35;;;;;;;;;;5039094;28;20389;-90
2021/10/12 07:38:23;;;;;;;15.40;4.30;;;;;;;;;;5041137;28;20013;-89
2021/10/12 07:40:48;;;;;;;14.45;4.10;;;;;;;;;;5031591;28;20018;-89
2021/10/12 07:43:13;;;;;;;12.95;3.70;;;;;;;;;;5032767;28;20591;-90
2021/10/12 07:45:38;;;;;;;12.43;4.05;;;;;;;;;;5030031;28;20024;-90
2021/10/12 07:48:04;;;;;;;15.43;4.63;;;;;;;;;;5033379;28;20029;-89
2021/10/12 07:50:29;;;;;;;15.15;4.15;;;;;;;;;;5033699;28;20017;-90
2021/10/12 07:52:54;;;;;;;13.98;4.68;;;;;;;;;;5066191;28;20104;-89
2021/10/12 07:55:28;;;;;;;10.63;4.25;;;;;;;;;;5029972;28;20473;-90
2021/10/12 07:57:54;;;;;;;16.48;4.40;;;;;;;;;;5030364;28;20025;-90
2021/10/12 08:00:19;;;;;;;13.50;4.35;;;;;;;;;;5032098;28;20022;-89
2021/10/12 08:02:44;;;;;;;11.40;3.83;;;;;;;;;;5058501;28;20053;-89
2021/10/12 08:05:10;;;;;;;10.38;4.53;;;;;;;;;;5032085;28;20052;-89
2021/10/12 08:07:35;;;;;;;10.57;3.80;;;;;;;;;;5040086;28;20074;-90
2021/10/12 08:10:00;;;;;;;19.75;4.68;;;;;;;;;;5067390;28;20370;-90
2021/10/12 08:12:26;;;;;;;17.55;4.65;;;;;;;;;;5036641;28;20025;-89
2021/10/12 08:14:58;;;;;;;10.75;4.43;;;;;;;;;;5032576;28;20040;-90
2021/10/12 08:17:23;;;;;;;12.07;5.05;;;;;;;;;;5034969;28;20461;-90
2021/10/12 08:19:49;;;;;;;10.27;4.10;;;;;;;;;;5033777;28;20053;-90
2021/10/12 08:22:14;;;;;;;25.25;5.07;;;;;;;;;;5071820;28;20112;-90
2021/10/12 08:24:40;;;;;;;12.18;4.63;;;;;;;;;;5033007;28;20041;-90
2021/10/12 08:27:05;;;;;;;18.23;5.25;;;;;;;;;;5058744;28;20079;-90
2021/10/12 08:29:30;;;;;;;19.38;5.43;;;;;;;;;;5055178;28;20033;-89
2021/10/12 08:31:55;;;;;;;12.70;4.05;;;;;;;;;;5031912;28;20033;-90
2021/10/12 08:34:21;;;;;;;13.00;4.72;;;;;;;;;;5031886;28;20028;-90
2021/10/12 08:36:46;;;;;;;12.90;5.68;;;;;;;;;;5031288;28;20022;-89
2021/10/12 08:39:11;;;;;;;14.52;4.80;;;;;;;;;;5048530;28;20032;-90
2021/10/12 08:41:57;;;;;;;13.68;5.03;;;;;;;;;;5031614;28;20138;-90
2021/10/12 08:44:22;;;;;;;18.80;5.20;;;;;;;;;;5031568;28;20045;-90
2021/10/12 08:46:48;;;;;;;18.92;5.72;;;;;;;;;;5035498;28;20032;-90
2021/10/12 08:49:13;;;;;;;20.52;4.32;;;;;;;;;;5031559;28;20029;-89
2021/10/12 08:51:41;;;;;;;20.50;4.82;;;;;;;;;;5031260;28;20021;-89
2021/10/12 08:54:06;;;;;;;21.85;5.22;;;;;;;;;;5054905;28;20039;-90
2021/10/12 08:56:31;;;;;;;14.80;4.78;;;;;;;;;;5033718;28;20063;-91
2021/10/12 08:58:56;;;;;;;17.42;5.53;;;;;;;;;;5031702;28;20025;-90
2021/10/12 09:01:22;;;;;;;12.65;4.85;;;;;;;;;;5034667;28;20116;-91
2021/10/12 09:06:26;;;;;;;16.50;6.15;;;;;;;;;;5036733;28;20029;-91
2021/10/12 09:08:55;;;;;;;20.52;5.20;;;;;;;;;;5036106;28;20025;-90
2021/10/12 09:11:21;;;;;;;20.48;5.60;;;;;;;;;;5037057;28;20476;-91
2021/10/12 09:13:48;;;;;;;20.08;5.70;;;;;;;;;;5035840;28;20025;-91
2021/10/12 09:16:17;;;;;;;17.73;5.65;;;;;;;;;;5038191;28;20028;-91
2021/10/12 09:18:45;;;;;;;14.98;5.60;;;;;;;;;;5035766;28;20017;-91
2021/10/12 09:21:14;;;;;;;14.05;5.15;;;;;;;;;;5061778;28;20525;-90
2021/10/12 09:23:42;;;;;;;14.38;5.55;;;;;;;;;;5069184;28;20092;-90
2021/10/12 09:26:24;;;;;;;12.90;6.03;;;;;;;;;;5043914;28;20029;-90
2021/10/12 09:28:50;;;;;;;13.93;6.47;;;;;;;;;;5030418;28;20022;-90
2021/10/12 09:31:16;;;;;;;15.55;6.60;;;;;;;;;;5041897;28;20049;-90
2021/10/12 09:33:50;;;;;;;23.00;7.00;;;;;;;;;;5055276;28;20447;-90
2021/10/12 09:36:29;;;;;;;16.67;6.32;;;;;;;;;;5044702;28;20021;-90
2021/10/12 09:38:55;;;;;;;19.80;7.13;;;;;;;;;;5022788;28;20040;-91
2021/10/12 09:41:28;;;;;;;15.70;6.35;;;;;;;;;;5037756;28;20017;-90
2021/10/12 09:44:12;;;;;;;15.48;6.72;;;;;;;;;;5021699;28;20014;-90
2021/10/12 09:46:38;;;;;;;14.35;6.38;;;;;;;;;;5035310;28;20028;-90
2021/10/12 09:49:10;;;;;;;15.43;6.97;;;;;;;;;;5068235;28;20033;-90
2021/10/12 09:51:36;;;;;;;24.02;7.82;;;;;;;;;;5035018;28;20021;-90
2021/10/12 09:54:01;;;;;;;19.27;7.47;;;;;;;;;;5034687;28;20512;-90
2021/10/12 09:56:27;;;;;;;15.15;6.95;;;;;;;;;;5038779;28;20094;-90
2021/10/12 09:58:52;;;;;;;12.90;7.30;;;;;;;;;;5034888;28;20022;-90
2021/10/12 10:01:17;;;;;;;15.73;7.03;;;;;;;;;;5034903;28;20017;-90
2021/10/12 10:03:43;;;;;;;23.45;7.53;;;;;;;;;;5041761;28;20021;-90
2021/10/12 10:06:10;;;;;;;17.77;7.13;;;;;;;;;;5066629;28;20029;-90
2021/10/12 10:08:39;;;;;;;12.98;6.38;;;;;;;;;;5034686;28;20030;-90
2021/10/12 10:11:05;;;;;;;15.55;7.57;;;;;;;;;;5043077;28;20075;-91
2021/10/12 10:13:33;;;;;;;19.63;6.90;;;;;;;;;;5036986;28;20504;-90
2021/10/12 10:15:58;;;;;;;25.75;6.82;;;;;;;;;;5038455;28;20006;-91
2021/10/12 10:18:24;;;;;;;17.27;7.38;;;;;;;;;;5025420;28;20022;-90
2021/10/12 10:20:51;;;;;;;19.05;6.43;;;;;;;;;;5034602;28;20013;-90
2021/10/12 10:23:35;;;;;;;16.83;6.95;;;;;;;;;;5034645;28;20116;-90
2021/10/12 10:26:19;;;;;;;19.17;7.93;;;;;;;;;;5057774;28;20032;-90
2021/10/12 10:28:44;;;;;;;20.25;7.00;;;;;;;;;;5055601;28;20108;-91
2021/10/12 10:31:09;;;;;;;21.80;7.40;;;;;;;;;;5067671;28;20533;-90
2021/10/12 10:33:35;;;;;;;21.55;7.60;;;;;;;;;;5034451;28;20018;-90
2021/10/12 10:36:01;;;;;;;15.05;6.82;;;;;;;;;;5065208;28;20026;-90
2021/10/12 10:38:30;;;;;;;14.95;6.90;;;;;;;;;;5034208;28;20036;-90
2021/10/12 10:41:04;;;;;;;20.08;7.10;;;;;;;;;;5034259;28;20487;-90
2021/10/12 10:43:51;;;;;;;20.33;6.88;;;;;;;;;;5035331;28;20025;-90
2021/10/12 10:46:32;;;;;;;24.00;7.72;;;;;;;;;;5066695;28;20017;-90
2021/10/12 10:49:13;;;;;;;22.00;7.28;;;;;;;;;;5060627;28;20116;-90
2021/10/12 10:51:49;;;;;;;22.27;7.32;;;;;;;;;;5055157;28;20037;-90
2021/10/12 10:54:33;;;;;;;18.63;7.18;;;;;;;;;;5041322;28;20116;-90
2021/10/12 10:57:15;;;;;;;19.75;7.93;;;;;;;;;;5033688;28;20021;-90
2021/10/12 10:59:40;;;;;;;23.92;7.85;;;;;;;;;;5039443;28;20088;-90
2021/10/12 11:02:44;;;;;;;20.35;8.10;;;;;;;;;;5033329;28;20481;-90
2021/10/12 11:05:09;;;;;;;26.98;7.65;;;;;;;;;;4990790;28;20031;-89
2021/10/12 11:07:35;;;;;;;20.88;7.13;;;;;;;;;;4972286;28;20069;-90
2021/10/12 11:10:00;;;;;;;22.00;7.75;;;;;;;;;;5001480;28;20084;-90
2021/10/12 11:12:26;;;;;;;25.02;7.63;;;;;;;;;;5038934;28;20084;-89
2021/10/12 11:14:52;;;;;;;16.65;6.53;;;;;;;;;;5033378;28;20461;-90
2021/10/12 11:17:17;;;;;;;21.67;7.22;;;;;;;;;;5066415;28;20021;-89
2021/10/12 11:19:56;;;;;;;20.33;7.82;;;;;;;;;;5034665;28;20017;-90
2021/10/12 11:22:21;;;;;;;13.48;6.32;;;;;;;;;;5066292;28;20025;-90
2021/10/12 11:24:47;;;;;;;20.70;7.30;;;;;;;;;;5033066;28;20393;-90
2021/10/12 11:27:13;;;;;;;27.58;7.47;;;;;;;;;;5033938;28;20033;-91
2021/10/12 11:29:38;;;;;;;21.05;6.78;;;;;;;;;;5032535;28;20596;-90
2021/10/12 11:32:03;;;;;;;21.23;6.80;;;;;;;;;;5041817;28;20385;-90
2021/10/12 11:34:30;;;;;;;16.17;6.40;;;;;;;;;;5061217;28;20075;-90
2021/10/12 11:37:05;;;;;;;19.05;6.50;;;;;;;;;;5040818;28;20017;-89
2021/10/12 11:39:30;;;;;;;18.80;7.80;;;;;;;;;;5075141;28;20377;-90
2021/10/12 11:41:59;;;;;;;17.23;6.75;;;;;;;;;;5038078;28;20020;-89
2021/10/12 11:44:25;;;;;;;15.60;6.22;;;;;;;;;;5041876;28;20029;-90
2021/10/12 11:46:51;;;;;;;21.60;6.53;;;;;;;;;;5034416;28;20089;-90
2021/10/12 11:49:17;;;;;;;16.85;6.28;;;;;;;;;;5039418;28;20060;-89
2021/10/12 11:51:44;;;;;;;15.05;6.13;;;;;;;;;;5033480;28;20029;-90
2021/10/12 11:54:10;;;;;;;12.45;5.57;;;;;;;;;;5038358;28;20040;-90
2021/10/12 11:56:36;;;;;;;13.73;6.43;;;;;;;;;;5034587;28;20373;-90
2021/10/12 11:59:02;;;;;;;13.18;6.10;;;;;;;;;;5033232;28;20071;-90
2021/10/12 12:01:39;;;;;;;17.00;5.88;;;;;;;;;;5033268;28;20067;-91
2021/10/12 12:04:05;;;;;;;14.60;5.95;;;;;;;;;;5037744;28;20602;-90
2021/10/12 12:06:32;;;;;;;14.70;5.93;;;;;;;;;;5038300;28;20051;-91
2021/10/12 12:08:59;;;;;;;12.57;6.22;;;;;;;;;;5039296;28;20024;-89
2021/10/12 12:11:25;;;;;;;20.63;6.68;;;;;;;;;;5032189;28;20041;-90
2021/10/12 12:13:51;;;;;;;11.90;6.13;;;;;;;;;;5032617;28;20032;-90
2021/10/12 12:16:18;;;;;;;17.35;7.00;;;;;;;;;;5031954;28;20043;-90
2021/10/12 12:18:43;;;;;;;20.58;7.95;;;;;;;;;;5032136;28;20372;-89
2021/10/12 12:21:08;;;;;;;18.27;6.00;;;;;;;;;;5018255;28;20117;-89
2021/10/12 12:23:41;;;;;;;18.55;5.97;;;;;;;;;;5034625;28;20017;-89
2021/10/12 12:26:09;;;;;;;12.02;4.80;;;;;;;;;;5039515;28;20425;-89
2021/10/12 12:28:34;;;;;;;13.23;4.65;;;;;;;;;;5053397;28;21723;-89
2021/10/12 12:31:15;;;;;;;15.27;5.50;;;;;;;;;;5027504;28;20036;-89
2021/10/12 12:33:41;;;;;;;11.75;5.05;;;;;;;;;;5054466;28;20025;-90
2021/10/12 12:36:06;;;;;;;9.85;5.55;;;;;;;;;;5036718;28;20045;-89
2021/10/12 12:38:32;;;;;;;10.73;4.43;;;;;;;;;;5030639;28;20025;-89
2021/10/12 12:40:57;;;;;;;18.70;5.90;;;;;;;;;;5031931;28;20082;-90
2021/10/12 12:43:28;;;;;;;13.18;5.82;;;;;;;;;;5064959;28;20021;-89
2021/10/12 12:46:10;;;;;;;17.02;5.30;;;;;;;;;;5031644;28;20492;-89
2021/10/12 12:48:35;;;;;;;9.90;4.32;;;;;;;;;;5031574;28;20645;-89
2021/10/12 12:51:01;;;;;;;16.92;5.03;;;;;;;;;;5031646;28;20116;-90
2021/10/12 12:53:37;;;;;;;9.50;3.50;;;;;;;;;;5036316;28;20022;-89
2021/10/12 12:56:05;;;;;;;8.35;1.17;;;;;;;;;;5031472;28;20018;-90
2021/10/12 12:58:34;;;;;;;5.38;0.90;;;;;;;;;;5031663;28;20017;-90
2021/10/12 13:01:00;;;;;;;2.03;0.80;;;;;;;;;;5035583;28;20026;-90
2021/10/12 13:03:26;;;;;;;4.18;0.90;;;;;;;;;;5035354;28;20377;-90
2021/10/12 13:05:52;;;;;;;4.25;1.30;;;;;;;;;;5031331;28;20025;-89
2021/10/12 13:08:17;;;;;;;2.45;0.80;;;;;;;;;;5033052;28;20033;-90
2021/10/12 13:10:42;;;;;;;1.50;1.05;;;;;;;;;;5031615;28;20014;-88
2021/10/12 13:13:07;;;;;;;5.45;1.50;;;;;;;;;;5031089;28;20079;-89
2021/10/12 13:15:33;;;;;;;2.17;0.95;;;;;;;;;;5031312;28;20112;-90
2021/10/12 13:17:58;;;;;;;6.13;1.08;;;;;;;;;;5032669;28;20483;-90
2021/10/12 13:20:23;;;;;;;5.47;1.05;;;;;;;;;;5031175;28;20039;-89
2021/10/12 13:22:48;;;;;;;2.90;1.40;;;;;;;;;;5031656;28;20386;-90
2021/10/12 13:25:14;;;;;;;4.60;1.38;;;;;;;;;;5031555;28;20477;-90
2021/10/12 13:27:39;;;;;;;5.65;1.20;;;;;;;;;;5031346;28;20036;-90
2021/10/12 13:30:05;;;;;;;7.25;1.20;;;;;;;;;;5042162;28;20049;-90
2021/10/12 13:32:30;;;;;;;7.32;1.15;;;;;;;;;;5031579;28;20079;-89
2021/10/12 13:34:57;;;;;;;2.92;1.50;;;;;;;;;;5031563;28;20053;-90
2021/10/12 13:37:23;;;;;;;2.28;1.10;;;;;;;;;;5033663;28;20096;-90
2021/10/12 13:39:48;;;;;;;6.07;1.20;;;;;;;;;;5037832;28;20543;-90
2021/10/12 13:42:14;;;;;;;2.95;1.02;;;;;;;;;;5063332;28;20052;-90
2021/10/12 13:44:40;;;;;;;3.58;1.13;;;;;;;;;;5033104;28;20021;-90
2021/10/12 13:47:08;;;;;;;2.88;1.05;;;;;;;;;;5039666;28;20028;-89
2021/10/12 13:49:34;;;;;;;2.00;1.00;;;;;;;;;;5032752;28;20022;-90
2021/10/12 13:51:59;;;;;;;7.05;1.00;;;;;;;;;;5068061;28;20021;-90
2021/10/12 13:54:25;;;;;;;4.35;1.15;;;;;;;;;;5034806;28;20465;-90
2021/10/12 13:56:51;;;;;;;2.28;0.90;;;;;;;;;;5036133;28;20458;-90
2021/10/12 13:59:16;;;;;;;5.88;1.38;;;;;;;;;;5045249;28;20022;-90
2021/10/12 14:01:41;;;;;;;3.10;0.85;;;;;;;;;;5034898;28;20028;-90
2021/10/12 14:04:06;;;;;;;5.68;1.20;;;;;;;;;;5034017;28;20030;-90
2021/10/12 14:06:32;;;;;;;2.38;0.90;;;;;;;;;;5073920;28;20055;-90
2021/10/12 14:08:57;;;;;;;9.93;1.50;;;;;;;;;;5046303;28;20468;-89
2021/10/12 14:11:22;;;;;;;4.93;1.50;;;;;;;;;;5034568;28;20484;-90
2021/10/12 14:13:47;;;;;;;2.50;1.52;;;;;;;;;;5034666;28;20044;-90
2021/10/12 14:16:13;;;;;;;3.42;1.38;;;;;;;;;;5067456;28;20029;-90
2021/10/12 14:18:38;;;;;;;4.40;1.40;;;;;;;;;;5040168;28;20009;-90
2021/10/12 14:21:03;;;;;;;5.93;1.75;;;;;;;;;;5067826;28;20485;-89
2021/10/12 14:23:29;;;;;;;2.83;1.40;;;;;;;;;;5037150;28;20039;-90
2021/10/12 14:25:54;;;;;;;3.53;1.60;;;;;;;;;;5065654;28;20067;-90
2021/10/12 14:28:19;;;;;;;6.95;1.70;;;;;;;;;;5048835;28;20022;-89
2021/10/12 14:30:45;;;;;;;2.55;1.80;;;;;;;;;;5037425;28;20060;-90
2021/10/12 14:33:11;;;;;;;4.28;1.75;;;;;;;;;;5036503;28;20475;-90